createdAt,value
2023-01-07T00:05:27.450Z,5.20
2023-01-07T00:27:13.235Z,5.40
2023-01-07T00:48:59.305Z,6.30
2023-01-07T01:10:45.075Z,5.20
2023-01-07T01:32:31.027Z,4.70
2023-01-07T01:54:19.892Z,4.10
2023-01-07T02:16:19.219Z,4.70
2023-01-07T02:38:14.612Z,4.20
2023-01-07T03:00:15.979Z,4.00
2023-01-07T03:22:04.474Z,4.00
2023-01-07T03:43:50.354Z,5.40
2023-01-07T04:05:36.366Z,5.60
2023-01-07T04:27:22.178Z,4.90
2023-01-07T04:49:08.072Z,4.80
2023-01-07T05:10:54.325Z,5.70
2023-01-07T05:43:44.718Z,7.80
2023-01-07T06:05:31.217Z,6.80
2023-01-07T06:27:17.111Z,7.60
2023-01-07T06:49:02.989Z,7.50
2023-01-07T07:10:48.742Z,6.50
2023-01-07T07:32:34.377Z,7.70
2023-01-07T07:54:21.811Z,8.30
2023-01-07T08:16:09.895Z,7.10
2023-01-07T08:38:03.629Z,6.50
2023-01-07T08:59:49.400Z,6.70
2023-01-07T09:21:35.087Z,7.80
2023-01-07T09:44:01.117Z,7.50
2023-01-07T10:05:44.019Z,8.80
2023-01-07T10:27:35.357Z,8.60
2023-01-07T10:49:34.368Z,7.70
2023-01-07T11:11:23.388Z,8.20
2023-01-07T11:34:02.621Z,7.10
2023-01-07T11:55:31.673Z,7.10
2023-01-07T12:17:21.324Z,6.40
2023-01-07T12:44:08.858Z,5.80
2023-01-07T13:05:58.491Z,5.90
2023-01-07T13:28:02.798Z,6.70
2023-01-07T13:49:56.784Z,6.40
2023-01-07T14:19:18.263Z,6.00
2023-01-07T14:41:10.014Z,5.60
2023-01-07T15:03:28.397Z,6.30
2023-01-07T15:25:34.815Z,9.80
2023-01-07T15:47:41.981Z,16.80
2023-01-07T16:09:28.507Z,13.90
2023-01-07T16:31:18.024Z,17.90
2023-01-07T16:53:04.641Z,21.60
2023-01-07T17:14:51.787Z,21.60
2023-01-07T17:43:47.068Z,25.30
2023-01-07T18:05:32.783Z,29.30
2023-01-07T18:27:20.118Z,29.40
2023-01-07T18:49:05.816Z,28.30
2023-01-07T19:10:51.720Z,31.20
2023-01-07T19:32:37.520Z,28.40
2023-01-07T19:54:23.248Z,31.50
2023-01-07T20:20:33.044Z,31.40
2023-01-07T20:42:18.876Z,31.80
2023-01-07T21:04:05.214Z,31.40
2023-01-07T21:25:51.421Z,36.00
2023-01-07T21:47:37.173Z,34.30
2023-01-07T22:09:24.318Z,35.60
2023-01-07T22:31:16.612Z,30.50
2023-01-07T22:53:02.489Z,34.50
2023-01-07T23:37:48.085Z,27.40
2023-01-07T23:59:33.812Z,28.30
